Wan Hai 273 — 9V7586 — position and weather

sailwx.info

Track history (hours):
 
Tides and Currents Weather Stations Pressure Air Temp Water Temp Dewpoint Dewpoint Depression Visibility Wind Speed Wind Dir Waves Ship Positions

Wan Hai 273

Last reported at 2014-Dec-20 18:30 UTC. Time now 2014-Dec-20 18:38 UTC.
Position N 24°17' E 118°58'.

Length 172 m; draft 6.7 m.

Type: Cargo ship. MMSI: 566406000.

Date/timePositionNaut miles runAvg speedWind from/ knotsBaromVisibWave heightAir tempDewpointWater temp
2014-Dec-20 18:30N 24°17' E 118°58'1718.4
2014-Dec-20 17:33N 24°29' E 119°12'4018.3
2014-Dec-20 15:23N 24°58' E 119°41'77915.5
2014-Dec-18 13:06N 35°06' E 129°04'0 0.0
2014-Dec-18 12:33N 35°06' E 129°04'0 0.0
2014-Dec-18 11:30N 35°06' E 129°04'0 0.0
2014-Dec-18 10:33N 35°06' E 129°04'5 5.3
2014-Dec-18 09:33N 35°03' E 129°09'102 3.9
2014-Dec-17 07:33N 34°03' E 130°49'205 6.4
2014-Dec-15 23:33N 34°06' E 134°56'1615.7
2014-Dec-15 22:33N 34°21' E 135°00'1818.3
2014-Dec-15 21:34N 34°35' E 135°15'6 5.9
2014-Dec-15 20:33N 34°41' E 135°15'0 0.0
2014-Dec-15 19:33N 34°41' E 135°15'0 0.0
2014-Dec-15 18:33N 34°41' E 135°15'0 0.0
2014-Dec-15 17:33N 34°41' E 135°15'0 0.0
2014-Dec-15 16:33N 34°41' E 135°15'0 0.0
2014-Dec-15 15:33N 34°41' E 135°15'0 0.0
2014-Dec-15 14:33N 34°41' E 135°15'0 0.0
2014-Dec-15 13:27N 34°41' E 135°15'0 0.0
2014-Dec-15 12:33N 34°41' E 135°15'0 0.0
2014-Dec-15 11:33N 34°41' E 135°15'0 0.0
2014-Dec-15 10:27N 34°41' E 135°15'0 0.1
2014-Dec-15 09:33N 34°41' E 135°15'8 7.7
2014-Dec-15 08:33N 34°39' E 135°24'1 1.1
2014-Dec-15 07:16N 34°39' E 135°26'0 0.0
2014-Dec-15 06:28N 34°39' E 135°26'0 0.0
2014-Dec-15 05:28N 34°39' E 135°26'0 0.0
2014-Dec-15 04:16N 34°39' E 135°26'0 0.0
2014-Dec-15 03:28N 34°39' E 135°26'0 0.0
2014-Dec-15 02:22N 34°39' E 135°26'0 0.0
2014-Dec-15 01:28N 34°39' E 135°26'0 0.0
2014-Dec-15 00:22N 34°39' E 135°26'0 0.0
2014-Dec-14 23:22N 34°39' E 135°26'0 0.1
2014-Dec-14 22:33N 34°39' E 135°26'9 9.3
2014-Dec-14 21:33N 34°33' E 135°17'1514.8
2014-Dec-14 20:33N 34°22' E 135°04'1313.3
2014-Dec-14 19:33N 34°09' E 135°00'1010.4
2014-Dec-14 18:33N 33°59' E 135°00'  
2014-Dec-12 03:33N 24°25' E 119°18'15813.8
2014-Dec-11 16:07N 22°52' E 116°59'914.7
2014-Dec-11 15:31N 22°47' E 116°50'15115.0
2014-Dec-11 05:25N 22°09' E 114°12'1112.4
2014-Dec-11 04:33N 22°19' E 114°06'2 2.1
2014-Dec-11 03:31N 22°20' E 114°08'0 0.0
2014-Dec-11 02:19N 22°20' E 114°08'0 0.1
2014-Dec-11 01:31N 22°20' E 114°08'0 0.1
2014-Dec-11 00:31N 22°20' E 114°08'0 0.1
2014-Dec-10 23:31N 22°20' E 114°08'0 0.0
2014-Dec-10 22:31N 22°20' E 114°08'0 0.0
2014-Dec-10 21:31N 22°20' E 114°08'0 0.0
2014-Dec-10 19:25N 22°20' E 114°08'1 1.1
2014-Dec-10 18:34N 22°19' E 114°07'  
Track history (hours):
 
Tides and Currents Weather Stations Pressure Air Temp Water Temp Dewpoint Dewpoint Depression Visibility Wind Speed Wind Dir Waves Ship Positions

Wan Hai 273

Last reported at 2014-Dec-20 18:30 UTC. Time now 2014-Dec-20 18:38 UTC.
Position N 24°17' E 118°58'.

Length 172 m; draft 6.7 m.

Type: Cargo ship. MMSI: 566406000.

Date/timePositionNaut miles runAvg speedWind from/ knotsBaromVisibWave heightAir tempDewpointWater temp
2014-Dec-20 18:30N 24°17' E 118°58'1718.4
2014-Dec-20 17:33N 24°29' E 119°12'4018.3
2014-Dec-20 15:23N 24°58' E 119°41'77915.5
2014-Dec-18 13:06N 35°06' E 129°04'0 0.0
2014-Dec-18 12:33N 35°06' E 129°04'0 0.0
2014-Dec-18 11:30N 35°06' E 129°04'0 0.0
2014-Dec-18 10:33N 35°06' E 129°04'5 5.3
2014-Dec-18 09:33N 35°03' E 129°09'102 3.9
2014-Dec-17 07:33N 34°03' E 130°49'205 6.4
2014-Dec-15 23:33N 34°06' E 134°56'1615.7
2014-Dec-15 22:33N 34°21' E 135°00'1818.3
2014-Dec-15 21:34N 34°35' E 135°15'6 5.9
2014-Dec-15 20:33N 34°41' E 135°15'0 0.0
2014-Dec-15 19:33N 34°41' E 135°15'0 0.0
2014-Dec-15 18:33N 34°41' E 135°15'0 0.0
2014-Dec-15 17:33N 34°41' E 135°15'0 0.0
2014-Dec-15 16:33N 34°41' E 135°15'0 0.0
2014-Dec-15 15:33N 34°41' E 135°15'0 0.0
2014-Dec-15 14:33N 34°41' E 135°15'0 0.0
2014-Dec-15 13:27N 34°41' E 135°15'0 0.0
2014-Dec-15 12:33N 34°41' E 135°15'0 0.0
2014-Dec-15 11:33N 34°41' E 135°15'0 0.0
2014-Dec-15 10:27N 34°41' E 135°15'0 0.1
2014-Dec-15 09:33N 34°41' E 135°15'8 7.7
2014-Dec-15 08:33N 34°39' E 135°24'1 1.1
2014-Dec-15 07:16N 34°39' E 135°26'0 0.0
2014-Dec-15 06:28N 34°39' E 135°26'0 0.0
2014-Dec-15 05:28N 34°39' E 135°26'0 0.0
2014-Dec-15 04:16N 34°39' E 135°26'0 0.0
2014-Dec-15 03:28N 34°39' E 135°26'0 0.0
2014-Dec-15 02:22N 34°39' E 135°26'0 0.0
2014-Dec-15 01:28N 34°39' E 135°26'0 0.0
2014-Dec-15 00:22N 34°39' E 135°26'0 0.0
2014-Dec-14 23:22N 34°39' E 135°26'0 0.1
2014-Dec-14 22:33N 34°39' E 135°26'9 9.3
2014-Dec-14 21:33N 34°33' E 135°17'1514.8
2014-Dec-14 20:33N 34°22' E 135°04'1313.3
2014-Dec-14 19:33N 34°09' E 135°00'1010.4
2014-Dec-14 18:33N 33°59' E 135°00'  
2014-Dec-12 03:33N 24°25' E 119°18'15813.8
2014-Dec-11 16:07N 22°52' E 116°59'914.7
2014-Dec-11 15:31N 22°47' E 116°50'15115.0
2014-Dec-11 05:25N 22°09' E 114°12'1112.4
2014-Dec-11 04:33N 22°19' E 114°06'2 2.1
2014-Dec-11 03:31N 22°20' E 114°08'0 0.0
2014-Dec-11 02:19N 22°20' E 114°08'0 0.1
2014-Dec-11 01:31N 22°20' E 114°08'0 0.1
2014-Dec-11 00:31N 22°20' E 114°08'0 0.1
2014-Dec-10 23:31N 22°20' E 114°08'0 0.0
2014-Dec-10 22:31N 22°20' E 114°08'0 0.0
2014-Dec-10 21:31N 22°20' E 114°08'0 0.0
2014-Dec-10 19:25N 22°20' E 114°08'1 1.1
2014-Dec-10 18:34N 22°19' E 114°07'  

Dump ship's entire track history